Time;durP1;ratioP1;P1;durP2;ratioP2;P2;SDS_P1;SDS_P2;PMS_P1;PMS_P2;Temp;Humidity;BMP_temperature;BMP_pressure;BME280_temperature;BME280_humidity;BME280_pressure;Samples;Min_cycle;Max_cycle;Signal;HPM_P1;HPM_P2
2022/02/16 00:00:02;;;;;;;66.80;26.30;;;;;;;;;;5031001;28;20330;-61
2022/02/16 00:02:27;;;;;;;55.90;25.13;;;;;;;;;;5030436;28;20426;-61
2022/02/16 00:04:53;;;;;;;54.50;25.83;;;;;;;;;;5030661;28;20465;-61
2022/02/16 00:07:18;;;;;;;60.42;23.50;;;;;;;;;;5030935;28;20506;-62
2022/02/16 00:09:43;;;;;;;64.55;24.13;;;;;;;;;;5031130;28;20441;-61
2022/02/16 00:12:09;;;;;;;60.65;25.88;;;;;;;;;;5031018;28;20403;-61
2022/02/16 00:14:34;;;;;;;60.45;25.05;;;;;;;;;;5031594;28;20435;-62
2022/02/16 00:17:00;;;;;;;63.38;26.48;;;;;;;;;;5030508;28;20442;-61
2022/02/16 00:19:25;;;;;;;62.38;25.10;;;;;;;;;;5031173;28;20431;-61
2022/02/16 00:21:51;;;;;;;65.38;24.17;;;;;;;;;;5030633;28;20339;-62
2022/02/16 00:24:17;;;;;;;54.92;23.08;;;;;;;;;;5030748;28;20454;-61
2022/02/16 00:26:43;;;;;;;58.60;25.27;;;;;;;;;;5030348;28;20024;-61
2022/02/16 00:29:11;;;;;;;62.70;25.55;;;;;;;;;;5031545;28;20477;-62
2022/02/16 00:31:37;;;;;;;59.30;24.67;;;;;;;;;;5030047;28;20371;-61
2022/02/16 00:34:02;;;;;;;57.13;24.00;;;;;;;;;;5031329;28;20048;-62
2022/02/16 00:36:27;;;;;;;61.45;23.98;;;;;;;;;;5030666;28;20032;-61
2022/02/16 00:38:53;;;;;;;55.22;24.10;;;;;;;;;;5030487;28;20024;-62
2022/02/16 00:41:18;;;;;;;56.08;23.25;;;;;;;;;;5030714;28;20439;-62
2022/02/16 00:43:43;;;;;;;60.28;23.48;;;;;;;;;;5030253;28;20454;-61
2022/02/16 00:46:09;;;;;;;59.38;24.23;;;;;;;;;;5030523;28;20406;-61
2022/02/16 00:48:34;;;;;;;54.20;22.73;;;;;;;;;;5031378;28;20334;-61
2022/02/16 00:50:59;;;;;;;55.63;23.00;;;;;;;;;;5031739;28;20110;-61
2022/02/16 00:53:24;;;;;;;49.58;22.50;;;;;;;;;;5029419;28;20043;-62
2022/02/16 00:55:50;;;;;;;50.25;22.60;;;;;;;;;;5031154;28;20032;-62
2022/02/16 00:58:16;;;;;;;50.47;22.88;;;;;;;;;;5029323;28;20427;-61
2022/02/16 01:00:41;;;;;;;59.40;22.83;;;;;;;;;;5022502;28;20348;-62
2022/02/16 01:03:06;;;;;;;58.63;22.63;;;;;;;;;;5018192;28;20305;-61
2022/02/16 01:05:32;;;;;;;61.05;23.48;;;;;;;;;;5009026;28;20506;-62
2022/02/16 01:07:57;;;;;;;54.05;23.23;;;;;;;;;;5009742;28;20371;-62
2022/02/16 01:10:23;;;;;;;56.22;23.15;;;;;;;;;;5009705;28;20421;-62
2022/02/16 01:12:48;;;;;;;56.08;22.70;;;;;;;;;;5010632;28;20438;-62
2022/02/16 01:15:14;;;;;;;53.70;23.08;;;;;;;;;;5009386;28;20109;-61
2022/02/16 01:17:39;;;;;;;64.90;25.10;;;;;;;;;;5010380;28;20536;-62
2022/02/16 01:20:06;;;;;;;45.83;21.35;;;;;;;;;;5010286;28;20339;-62
2022/02/16 01:22:32;;;;;;;43.78;22.25;;;;;;;;;;5010005;28;20324;-62
2022/02/16 01:24:57;;;;;;;50.55;24.40;;;;;;;;;;5009268;28;20036;-62
2022/02/16 01:27:23;;;;;;;47.40;20.73;;;;;;;;;;5010017;28;20402;-62
2022/02/16 01:29:48;;;;;;;48.72;23.00;;;;;;;;;;5009281;28;20432;-61
2022/02/16 01:32:14;;;;;;;57.92;24.08;;;;;;;;;;5009625;28;20423;-63
2022/02/16 01:34:39;;;;;;;51.55;22.33;;;;;;;;;;5010123;28;20087;-62
2022/02/16 01:37:04;;;;;;;54.13;22.42;;;;;;;;;;5010548;28;20304;-62
2022/02/16 01:39:30;;;;;;;56.42;24.15;;;;;;;;;;5009327;28;20352;-61
2022/02/16 01:41:56;;;;;;;55.40;24.27;;;;;;;;;;5009168;28;20323;-61
2022/02/16 01:44:22;;;;;;;51.20;22.55;;;;;;;;;;5009046;28;20042;-61
2022/02/16 01:46:52;;;;;;;54.58;22.65;;;;;;;;;;5009454;28;20432;-62
2022/02/16 01:49:17;;;;;;;53.35;23.23;;;;;;;;;;5009657;28;20024;-61
2022/02/16 01:51:43;;;;;;;49.97;22.33;;;;;;;;;;5009230;28;20471;-62
2022/02/16 01:54:09;;;;;;;55.97;24.17;;;;;;;;;;5008854;28;20381;-61
2022/02/16 01:56:35;;;;;;;55.10;22.75;;;;;;;;;;5008708;28;20466;-62
2022/02/16 01:59:01;;;;;;;56.17;22.38;;;;;;;;;;5008836;28;20439;-61
2022/02/16 02:01:26;;;;;;;55.63;23.17;;;;;;;;;;5009952;28;20443;-62
2022/02/16 02:03:51;;;;;;;50.60;23.08;;;;;;;;;;5006869;28;20432;-61
2022/02/16 02:06:17;;;;;;;52.08;21.45;;;;;;;;;;5009032;28;20443;-62
2022/02/16 02:08:42;;;;;;;50.30;22.73;;;;;;;;;;5008770;28;20383;-61
2022/02/16 02:11:07;;;;;;;46.45;22.05;;;;;;;;;;5010251;28;20370;-62
2022/02/16 02:13:33;;;;;;;62.50;22.08;;;;;;;;;;5008862;28;20316;-63
2022/02/16 02:15:58;;;;;;;52.60;23.92;;;;;;;;;;5008777;28;20551;-62
2022/02/16 02:18:23;;;;;;;48.50;21.13;;;;;;;;;;5008702;28;20450;-62
2022/02/16 02:20:49;;;;;;;56.45;22.60;;;;;;;;;;5010424;28;20420;-62
2022/02/16 02:23:14;;;;;;;45.58;22.52;;;;;;;;;;5008594;28;20419;-61
2022/02/16 02:25:55;;;;;;;47.88;21.10;;;;;;;;;;5010766;28;20451;-62
2022/02/16 02:28:23;;;;;;;50.30;21.83;;;;;;;;;;5012447;28;20398;-61
2022/02/16 02:30:49;;;;;;;56.88;22.52;;;;;;;;;;5012757;28;20398;-61
2022/02/16 02:33:15;;;;;;;47.28;22.13;;;;;;;;;;5012320;28;20424;-61
2022/02/16 02:35:40;;;;;;;53.50;22.95;;;;;;;;;;5012585;28;20349;-62
2022/02/16 02:38:06;;;;;;;56.00;23.35;;;;;;;;;;5013545;28;20410;-61
2022/02/16 02:40:32;;;;;;;51.85;23.77;;;;;;;;;;5012431;28;20447;-62
2022/02/16 02:42:57;;;;;;;47.20;22.42;;;;;;;;;;5013234;28;20054;-62
2022/02/16 02:45:23;;;;;;;55.70;22.95;;;;;;;;;;5012214;28;20428;-61
2022/02/16 02:47:48;;;;;;;54.95;22.77;;;;;;;;;;5012619;28;20047;-61
2022/02/16 02:50:13;;;;;;;50.30;22.05;;;;;;;;;;5012653;28;20600;-62
2022/02/16 02:52:39;;;;;;;52.88;21.15;;;;;;;;;;5012325;28;20412;-61
2022/02/16 02:55:05;;;;;;;49.85;21.52;;;;;;;;;;5012207;28;20320;-61
2022/02/16 02:57:31;;;;;;;51.05;21.52;;;;;;;;;;5012337;28;20356;-61
2022/02/16 02:59:56;;;;;;;50.90;23.00;;;;;;;;;;5012237;28;20396;-62
2022/02/16 03:02:23;;;;;;;55.15;21.33;;;;;;;;;;5012034;28;20479;-61
2022/02/16 03:04:48;;;;;;;47.20;21.27;;;;;;;;;;5011058;28;20576;-62
2022/02/16 03:07:13;;;;;;;46.65;21.00;;;;;;;;;;5011886;28;20510;-61
2022/02/16 03:09:39;;;;;;;46.90;21.80;;;;;;;;;;5011425;28;20427;-62
2022/02/16 03:12:06;;;;;;;50.47;21.80;;;;;;;;;;5012163;28;20484;-61
2022/02/16 03:14:32;;;;;;;51.55;21.13;;;;;;;;;;5012022;28;20355;-61
2022/02/16 03:16:57;;;;;;;49.15;22.63;;;;;;;;;;5012056;28;20366;-62
2022/02/16 03:19:23;;;;;;;48.17;19.77;;;;;;;;;;5012073;28;20548;-61
2022/02/16 03:21:48;;;;;;;44.60;21.63;;;;;;;;;;5012026;28;20024;-61
2022/02/16 03:24:13;;;;;;;44.33;20.00;;;;;;;;;;5011599;28;20517;-62
2022/02/16 03:26:39;;;;;;;44.88;21.15;;;;;;;;;;5011918;28;20359;-61
2022/02/16 03:29:04;;;;;;;52.20;23.42;;;;;;;;;;5011705;28;20526;-62
2022/02/16 03:31:29;;;;;;;48.92;21.40;;;;;;;;;;5010135;28;20412;-61
2022/02/16 03:33:55;;;;;;;43.85;20.33;;;;;;;;;;5011527;28;20506;-61
2022/02/16 03:36:20;;;;;;;44.70;20.23;;;;;;;;;;5010758;28;20458;-63
2022/02/16 03:38:45;;;;;;;45.63;20.95;;;;;;;;;;5011737;28;20453;-62
2022/02/16 03:41:11;;;;;;;47.08;21.33;;;;;;;;;;5011317;28;20335;-65
2022/02/16 03:43:36;;;;;;;46.22;21.33;;;;;;;;;;5011421;28;20320;-62
2022/02/16 03:46:02;;;;;;;52.88;21.13;;;;;;;;;;5011462;28;20060;-62
2022/02/16 03:48:27;;;;;;;43.05;20.27;;;;;;;;;;5011012;28;20435;-62
2022/02/16 03:50:52;;;;;;;44.15;20.92;;;;;;;;;;5011480;28;20441;-62
2022/02/16 03:53:19;;;;;;;45.25;20.90;;;;;;;;;;5010994;28;20340;-62
2022/02/16 03:55:44;;;;;;;45.65;20.55;;;;;;;;;;5012974;28;20459;-61
2022/02/16 03:58:10;;;;;;;45.38;20.38;;;;;;;;;;5011082;28;20506;-62
2022/02/16 04:00:35;;;;;;;50.55;21.20;;;;;;;;;;5011256;28;20093;-61
2022/02/16 04:03:08;;;;;;;44.95;19.95;;;;;;;;;;5010432;28;20104;-62
2022/02/16 04:05:33;;;;;;;44.35;20.67;;;;;;;;;;5010588;28;20482;-62
2022/02/16 04:07:58;;;;;;;45.85;20.90;;;;;;;;;;5010943;28;20427;-62
2022/02/16 04:10:24;;;;;;;42.00;19.88;;;;;;;;;;5010997;28;20344;-62
2022/02/16 04:12:49;;;;;;;45.58;20.98;;;;;;;;;;5010697;28;20423;-62
2022/02/16 04:15:15;;;;;;;48.55;20.52;;;;;;;;;;5010354;28;20090;-61
2022/02/16 04:17:41;;;;;;;42.30;19.85;;;;;;;;;;5010893;28;20136;-61
2022/02/16 04:20:08;;;;;;;43.53;20.30;;;;;;;;;;5011548;28;20021;-61
2022/02/16 04:22:33;;;;;;;44.55;19.90;;;;;;;;;;5010737;28;20436;-61
2022/02/16 04:24:59;;;;;;;48.30;21.45;;;;;;;;;;5009356;28;20470;-61
2022/02/16 04:27:24;;;;;;;49.08;21.10;;;;;;;;;;5010569;28;20448;-62
2022/02/16 04:29:49;;;;;;;46.33;20.05;;;;;;;;;;5010373;28;20427;-61
2022/02/16 04:32:15;;;;;;;46.97;20.27;;;;;;;;;;5010465;28;20351;-62
2022/02/16 04:34:40;;;;;;;44.03;19.98;;;;;;;;;;5011078;28;20421;-61
2022/02/16 04:37:05;;;;;;;40.80;20.23;;;;;;;;;;5011521;28;20363;-61
2022/02/16 04:39:30;;;;;;;45.80;20.70;;;;;;;;;;5010053;28;20351;-62
2022/02/16 04:41:56;;;;;;;41.88;18.27;;;;;;;;;;5010284;28;20438;-61
2022/02/16 04:44:21;;;;;;;42.95;19.80;;;;;;;;;;5009945;28;20384;-61
2022/02/16 04:46:47;;;;;;;42.55;19.60;;;;;;;;;;5010025;28;20343;-61
2022/02/16 04:49:12;;;;;;;41.42;18.88;;;;;;;;;;5009805;28;20505;-61
2022/02/16 04:51:37;;;;;;;40.85;19.30;;;;;;;;;;5010321;28;20424;-63
2022/02/16 04:54:03;;;;;;;37.35;19.20;;;;;;;;;;5010803;28;20490;-61
2022/02/16 04:56:28;;;;;;;46.65;19.88;;;;;;;;;;5011104;28;20434;-62
2022/02/16 04:58:53;;;;;;;42.95;18.92;;;;;;;;;;5009556;28;20104;-61
2022/02/16 05:01:20;;;;;;;43.72;20.23;;;;;;;;;;5010834;28;20493;-62
2022/02/16 05:03:46;;;;;;;43.47;19.85;;;;;;;;;;5010700;28;20374;-62
2022/02/16 05:06:11;;;;;;;40.40;19.83;;;;;;;;;;5009898;28;20398;-61
2022/02/16 05:08:37;;;;;;;40.40;20.02;;;;;;;;;;5009770;28;20439;-62
2022/02/16 05:11:02;;;;;;;38.08;19.67;;;;;;;;;;5009802;28;20519;-61
2022/02/16 05:13:27;;;;;;;44.50;19.48;;;;;;;;;;5009579;28;20448;-61
2022/02/16 05:15:53;;;;;;;43.22;18.98;;;;;;;;;;5009968;28;20060;-63
2022/02/16 05:18:18;;;;;;;36.70;18.15;;;;;;;;;;5009569;28;20347;-61
2022/02/16 05:20:43;;;;;;;36.40;17.67;;;;;;;;;;5009146;28;20037;-62
2022/02/16 05:23:09;;;;;;;46.28;20.10;;;;;;;;;;5009449;28;20127;-62
2022/02/16 05:25:34;;;;;;;40.15;18.65;;;;;;;;;;5008968;28;20442;-61
2022/02/16 05:27:59;;;;;;;47.95;19.90;;;;;;;;;;5009042;28;20320;-61
2022/02/16 05:30:25;;;;;;;35.75;18.23;;;;;;;;;;5009308;28;20286;-61
2022/02/16 05:32:50;;;;;;;41.50;19.13;;;;;;;;;;5010141;28;20040;-62
2022/02/16 05:35:15;;;;;;;39.85;19.60;;;;;;;;;;5010751;28;20535;-62
2022/02/16 05:37:41;;;;;;;40.65;19.20;;;;;;;;;;5007967;28;20040;-62
2022/02/16 05:40:08;;;;;;;42.97;20.27;;;;;;;;;;5009919;28;20343;-61
2022/02/16 05:42:36;;;;;;;38.88;18.80;;;;;;;;;;5009098;28;20443;-62
2022/02/16 05:45:02;;;;;;;37.33;17.30;;;;;;;;;;5010422;28;20502;-61
2022/02/16 05:47:28;;;;;;;40.25;16.60;;;;;;;;;;5009493;28;20305;-61
2022/02/16 05:49:53;;;;;;;37.58;18.00;;;;;;;;;;5010685;28;20047;-62
2022/02/16 05:52:18;;;;;;;36.53;18.23;;;;;;;;;;5008922;28;20402;-61
2022/02/16 05:54:44;;;;;;;39.85;18.38;;;;;;;;;;5010008;28;20319;-62
2022/02/16 05:57:11;;;;;;;39.33;17.85;;;;;;;;;;5009060;28;20123;-61
2022/02/16 05:59:39;;;;;;;39.63;16.48;;;;;;;;;;5008523;28;20520;-62
2022/02/16 06:02:05;;;;;;;33.60;16.02;;;;;;;;;;5009164;28;20033;-61
2022/02/16 06:04:31;;;;;;;45.38;17.77;;;;;;;;;;5008485;28;20530;-62
2022/02/16 06:06:58;;;;;;;34.63;17.48;;;;;;;;;;5009100;28;20359;-62
2022/02/16 06:09:23;;;;;;;40.33;18.08;;;;;;;;;;5008993;28;20351;-61
2022/02/16 06:11:48;;;;;;;34.13;17.52;;;;;;;;;;5008922;28;20052;-61
2022/02/16 06:14:14;;;;;;;42.10;17.73;;;;;;;;;;5009334;28;20482;-62
2022/02/16 06:16:39;;;;;;;38.00;17.73;;;;;;;;;;5008701;28;20421;-62
2022/02/16 06:19:04;;;;;;;35.95;18.10;;;;;;;;;;5009185;28;20501;-62
2022/02/16 06:21:30;;;;;;;41.10;18.25;;;;;;;;;;5008777;28;20507;-61
2022/02/16 06:23:55;;;;;;;40.75;18.42;;;;;;;;;;5009902;28;20462;-61
2022/02/16 06:26:21;;;;;;;46.50;17.88;;;;;;;;;;5009335;28;20451;-62
2022/02/16 06:28:47;;;;;;;42.85;17.63;;;;;;;;;;5008562;28;20105;-62
2022/02/16 06:31:13;;;;;;;37.20;18.02;;;;;;;;;;5008865;28;20070;-62
2022/02/16 06:33:38;;;;;;;42.00;17.88;;;;;;;;;;5008480;28;20458;-62
2022/02/16 06:36:04;;;;;;;49.15;18.00;;;;;;;;;;5009734;28;20339;-62
2022/02/16 06:38:29;;;;;;;40.78;18.20;;;;;;;;;;5008600;28;20339;-61
2022/02/16 06:40:55;;;;;;;39.85;18.88;;;;;;;;;;5008761;28;20419;-63
2022/02/16 06:43:20;;;;;;;40.50;18.48;;;;;;;;;;5009326;28;20565;-62
2022/02/16 06:45:46;;;;;;;42.15;18.38;;;;;;;;;;5008637;28;20404;-61
2022/02/16 06:48:11;;;;;;;39.25;17.25;;;;;;;;;;5008375;28;20446;-62
2022/02/16 06:50:36;;;;;;;39.22;19.02;;;;;;;;;;5010002;28;20577;-62
2022/02/16 06:53:02;;;;;;;36.47;17.20;;;;;;;;;;5008171;28;20427;-62
2022/02/16 06:55:27;;;;;;;37.30;18.48;;;;;;;;;;5008531;28;20435;-62
2022/02/16 06:57:52;;;;;;;43.35;18.13;;;;;;;;;;5009049;28;20454;-62
2022/02/16 07:00:18;;;;;;;37.83;18.00;;;;;;;;;;5008262;28;20363;-62
2022/02/16 07:02:47;;;;;;;39.50;19.15;;;;;;;;;;5009599;28;20024;-62
2022/02/16 07:05:12;;;;;;;;;;;;;;;;;;5008270;28;20478;-61
2022/02/16 07:07:38;;;;;;;40.60;18.55;;;;;;;;;;5009747;28;20312;-61
2022/02/16 07:10:04;;;;;;;39.67;19.15;;;;;;;;;;5009263;28;20449;-62
2022/02/16 07:12:30;;;;;;;43.10;18.60;;;;;;;;;;5010212;28;20320;-62
2022/02/16 07:14:56;;;;;;;41.78;19.40;;;;;;;;;;5012040;28;20327;-62
2022/02/16 07:17:22;;;;;;;39.60;18.95;;;;;;;;;;5012857;28;20082;-62
2022/02/16 07:19:47;;;;;;;45.75;20.15;;;;;;;;;;5012327;28;20336;-61
2022/02/16 07:22:13;;;;;;;36.05;17.50;;;;;;;;;;5011775;28;20091;-62
2022/02/16 07:24:38;;;;;;;39.15;19.25;;;;;;;;;;5011791;28;20465;-62
2022/02/16 07:27:03;;;;;;;42.83;18.02;;;;;;;;;;5013431;28;20036;-62
2022/02/16 07:29:29;;;;;;;41.55;19.25;;;;;;;;;;5012861;28;20427;-61
2022/02/16 07:31:54;;;;;;;40.47;18.50;;;;;;;;;;5011359;28;20336;-63
2022/02/16 07:34:20;;;;;;;39.90;16.67;;;;;;;;;;5011612;28;20064;-62
2022/02/16 07:36:45;;;;;;;31.73;15.77;;;;;;;;;;5011501;28;20447;-62
2022/02/16 07:39:10;;;;;;;36.03;18.50;;;;;;;;;;5012691;28;20420;-61
2022/02/16 07:41:35;;;;;;;37.88;17.60;;;;;;;;;;5011209;28;20556;-62
2022/02/16 07:44:01;;;;;;;36.70;16.98;;;;;;;;;;5011317;28;20447;-62
2022/02/16 07:46:26;;;;;;;37.20;17.20;;;;;;;;;;5011061;28;20448;-62
2022/02/16 07:48:51;;;;;;;38.65;17.75;;;;;;;;;;5011129;28;20435;-62
2022/02/16 07:51:17;;;;;;;37.22;17.23;;;;;;;;;;5011608;28;20028;-61
2022/02/16 07:53:42;;;;;;;35.80;17.60;;;;;;;;;;5011689;28;20427;-62
2022/02/16 07:56:08;;;;;;;36.60;16.85;;;;;;;;;;5012059;28;20432;-62
2022/02/16 07:58:33;;;;;;;33.72;16.80;;;;;;;;;;5011220;28;20435;-62
2022/02/16 08:00:59;;;;;;;33.10;15.95;;;;;;;;;;5012682;28;20359;-62
2022/02/16 08:03:24;;;;;;;33.63;17.25;;;;;;;;;;5011076;28;20463;-63
2022/02/16 08:05:49;;;;;;;29.08;15.15;;;;;;;;;;5010567;28;20048;-61
2022/02/16 08:08:15;;;;;;;34.20;15.00;;;;;;;;;;5009114;28;20119;-62
2022/02/16 08:10:40;;;;;;;27.13;15.15;;;;;;;;;;5010957;28;20398;-62
2022/02/16 08:13:06;;;;;;;35.60;15.30;;;;;;;;;;5010969;28;20408;-62
2022/02/16 08:15:32;;;;;;;28.17;14.82;;;;;;;;;;5010946;28;20352;-61
2022/02/16 08:17:57;;;;;;;30.23;14.45;;;;;;;;;;5010722;28;20372;-61
2022/02/16 08:20:23;;;;;;;31.45;14.55;;;;;;;;;;5010879;28;20444;-62
2022/02/16 08:22:48;;;;;;;30.23;13.32;;;;;;;;;;5009099;28;20432;-62
2022/02/16 08:25:13;;;;;;;26.88;14.15;;;;;;;;;;5011202;28;20312;-63
2022/02/16 08:27:41;;;;;;;30.95;13.15;;;;;;;;;;5010193;28;20319;-62
2022/02/16 08:30:08;;;;;;;31.20;14.60;;;;;;;;;;5010575;28;20033;-63
2022/02/16 08:32:33;;;;;;;26.83;12.73;;;;;;;;;;5010619;28;20127;-62
2022/02/16 08:34:58;;;;;;;30.90;13.93;;;;;;;;;;5010202;28;20420;-63
2022/02/16 08:37:24;;;;;;;28.60;13.52;;;;;;;;;;5010528;28;20450;-62
2022/02/16 08:39:49;;;;;;;30.23;13.50;;;;;;;;;;5011257;28;20427;-62
2022/02/16 08:42:15;;;;;;;23.48;12.55;;;;;;;;;;5010438;28;20354;-62
2022/02/16 08:44:41;;;;;;;27.98;13.88;;;;;;;;;;5011055;28;20033;-61
2022/02/16 08:47:06;;;;;;;23.38;11.85;;;;;;;;;;5010059;28;20467;-62
2022/02/16 08:49:32;;;;;;;23.42;12.00;;;;;;;;;;5011499;28;20607;-62
2022/02/16 08:51:57;;;;;;;23.00;12.32;;;;;;;;;;5010114;28;20403;-62
2022/02/16 08:54:22;;;;;;;28.38;11.68;;;;;;;;;;5010124;28;20499;-62
2022/02/16 08:56:49;;;;;;;26.88;12.10;;;;;;;;;;5010141;28;20475;-62
2022/02/16 08:59:15;;;;;;;22.90;10.95;;;;;;;;;;5009990;28;21453;-62
2022/02/16 09:01:40;;;;;;;27.67;10.90;;;;;;;;;;5009685;28;20363;-61
2022/02/16 09:04:06;;;;;;;25.23;12.57;;;;;;;;;;5009340;28;20362;-62
2022/02/16 09:06:33;;;;;;;27.85;12.35;;;;;;;;;;5009780;28;20433;-61
2022/02/16 09:08:58;;;;;;;22.48;10.77;;;;;;;;;;5009717;28;20490;-61
2022/02/16 09:11:24;;;;;;;22.00;10.50;;;;;;;;;;5009550;28;20420;-62
2022/02/16 09:13:50;;;;;;;21.65;10.13;;;;;;;;;;5010000;28;20461;-62
2022/02/16 09:16:15;;;;;;;25.52;10.10;;;;;;;;;;5011363;28;20068;-63
2022/02/16 09:18:41;;;;;;;22.40;10.02;;;;;;;;;;5009883;28;20502;-62
2022/02/16 09:21:06;;;;;;;21.55;10.00;;;;;;;;;;5010033;28;20331;-61
2022/02/16 09:23:36;;;;;;;18.00;9.15;;;;;;;;;;5009620;28;20428;-61
2022/02/16 09:26:06;;;;;;;20.58;9.20;;;;;;;;;;5009449;28;20344;-63
2022/02/16 09:28:32;;;;;;;17.65;9.27;;;;;;;;;;5009039;28;20383;-61
2022/02/16 09:30:58;;;;;;;21.50;10.00;;;;;;;;;;5010018;28;20342;-62
2022/02/16 09:33:25;;;;;;;20.77;9.27;;;;;;;;;;5009192;28;20459;-62
2022/02/16 09:35:50;;;;;;;13.52;7.95;;;;;;;;;;5009630;28;20332;-61
2022/02/16 09:38:16;;;;;;;19.80;9.07;;;;;;;;;;5007784;28;20363;-61
2022/02/16 09:40:45;;;;;;;18.52;9.38;;;;;;;;;;5009573;28;20420;-62
2022/02/16 09:43:11;;;;;;;;;;;;;;;;;;5009878;28;20056;-62
2022/02/16 09:45:37;;;;;;;14.65;7.68;;;;;;;;;;5009168;28;20277;-62
2022/02/16 09:48:04;;;;;;;16.83;8.45;;;;;;;;;;5009214;28;20354;-62
2022/02/16 09:50:29;;;;;;;14.18;7.68;;;;;;;;;;5009077;28;20371;-62
2022/02/16 09:52:54;;;;;;;13.77;7.03;;;;;;;;;;5008982;28;20380;-62
2022/02/16 09:55:20;;;;;;;16.27;7.80;;;;;;;;;;5010190;28;20355;-62
2022/02/16 09:57:45;;;;;;;19.83;8.45;;;;;;;;;;5009736;28;20412;-65
2022/02/16 10:00:12;;;;;;;19.42;8.88;;;;;;;;;;5007293;28;20444;-62
2022/02/16 10:02:39;;;;;;;19.00;8.82;;;;;;;;;;5009166;28;20317;-61
2022/02/16 10:05:07;;;;;;;15.10;8.00;;;;;;;;;;5008283;28;20498;-62
2022/02/16 10:07:35;;;;;;;14.48;7.78;;;;;;;;;;5008554;28;20087;-62
2022/02/16 10:10:11;;;;;;;15.90;9.02;;;;;;;;;;5008970;28;20383;-63
2022/02/16 10:12:36;;;;;;;18.10;7.70;;;;;;;;;;5009444;28;20419;-62
2022/02/16 10:15:01;;;;;;;23.67;9.38;;;;;;;;;;5008811;28;20436;-62
2022/02/16 10:17:28;;;;;;;19.40;8.88;;;;;;;;;;5008723;28;20362;-62
2022/02/16 10:19:56;;;;;;;16.88;7.55;;;;;;;;;;5009713;28;20344;-62
2022/02/16 10:22:23;;;;;;;15.98;8.20;;;;;;;;;;5009261;28;20367;-62
2022/02/16 10:24:49;;;;;;;15.57;7.95;;;;;;;;;;5008370;28;20324;-61
2022/02/16 10:27:15;;;;;;;16.50;7.28;;;;;;;;;;5010218;28;20328;-62
2022/02/16 10:29:42;;;;;;;18.00;8.45;;;;;;;;;;5008915;28;20029;-61
2022/02/16 10:32:08;;;;;;;15.68;7.10;;;;;;;;;;5008453;28;20510;-62
2022/02/16 10:34:46;;;;;;;15.73;8.07;;;;;;;;;;5009393;28;20503;-61
2022/02/16 10:37:13;;;;;;;15.30;6.93;;;;;;;;;;5008658;28;20367;-62
2022/02/16 10:39:39;;;;;;;17.73;7.15;;;;;;;;;;5008395;28;20416;-62
2022/02/16 10:42:08;;;;;;;18.48;8.40;;;;;;;;;;5008768;28;20320;-62
2022/02/16 10:44:35;;;;;;;16.40;6.72;;;;;;;;;;5008625;28;20454;-62
2022/02/16 10:47:11;;;;;;;12.57;6.95;;;;;;;;;;5009531;28;20409;-62
2022/02/16 10:49:43;;;;;;;17.10;7.15;;;;;;;;;;5013659;28;20477;-62
2022/02/16 10:52:13;;;;;;;16.52;7.30;;;;;;;;;;5012304;28;20029;-62
2022/02/16 10:54:41;;;;;;;14.63;6.65;;;;;;;;;;5012184;28;20344;-62
2022/02/16 10:57:07;;;;;;;16.25;6.97;;;;;;;;;;5012388;28;20032;-63
2022/02/16 10:59:32;;;;;;;11.18;5.63;;;;;;;;;;5012393;28;20047;-63
2022/02/16 11:02:04;;;;;;;12.25;5.50;;;;;;;;;;5012539;28;20499;-61
2022/02/16 11:04:30;;;;;;;10.88;6.38;;;;;;;;;;5011716;28;20404;-62
2022/02/16 11:06:56;;;;;;;15.23;6.35;;;;;;;;;;5012984;28;20503;-62
2022/02/16 11:09:25;;;;;;;13.52;6.05;;;;;;;;;;5011412;28;20356;-62
2022/02/16 11:11:52;;;;;;;;;;;;;;;;;;5012540;28;20336;-62
2022/02/16 11:14:21;;;;;;;12.00;5.35;;;;;;;;;;5011891;28;20303;-62
2022/02/16 11:16:47;;;;;;;11.98;6.18;;;;;;;;;;5010256;28;20319;-62
2022/02/16 11:19:32;;;;;;;12.68;5.40;;;;;;;;;;5012664;28;20371;-62
2022/02/16 11:22:06;;;;;;;13.48;5.45;;;;;;;;;;5012249;28;20467;-62
2022/02/16 11:24:41;;;;;;;9.82;5.18;;;;;;;;;;5011789;28;20455;-63
2022/02/16 11:27:26;;;;;;;13.20;5.32;;;;;;;;;;5012199;28;20340;-62
2022/02/16 11:30:03;;;;;;;10.52;4.75;;;;;;;;;;5011653;28;20339;-61
2022/02/16 11:32:39;;;;;;;13.73;5.38;;;;;;;;;;5011482;28;20424;-62
2022/02/16 11:35:18;;;;;;;11.57;6.22;;;;;;;;;;5012548;28;20331;-62
2022/02/16 11:38:07;;;;;;;8.95;4.65;;;;;;;;;;5013556;28;20419;-61
2022/02/16 11:40:44;;;;;;;10.45;4.10;;;;;;;;;;4974229;28;20504;-62
2022/02/16 11:43:12;;;;;;;9.93;5.00;;;;;;;;;;5011148;28;20518;-62
2022/02/16 11:45:39;;;;;;;8.38;4.45;;;;;;;;;;5011748;28;20584;-62
2022/02/16 11:48:07;;;;;;;9.52;4.32;;;;;;;;;;5012057;28;20526;-62
2022/02/16 11:50:34;;;;;;;8.38;4.35;;;;;;;;;;5011755;28;20348;-61
2022/02/16 11:53:01;;;;;;;7.80;4.18;;;;;;;;;;5011692;28;20463;-62
2022/02/16 11:55:27;;;;;;;12.77;5.32;;;;;;;;;;5011584;28;20064;-62
2022/02/16 11:57:59;;;;;;;10.95;5.38;;;;;;;;;;5010646;28;20029;-62
2022/02/16 12:00:38;;;;;;;8.02;4.53;;;;;;;;;;5009636;28;20343;-62
2022/02/16 12:03:06;;;;;;;9.13;4.38;;;;;;;;;;5010988;28;20324;-62
2022/02/16 12:06:11;;;;;;;10.00;3.83;;;;;;;;;;5010722;28;20447;-62
2022/02/16 12:08:42;;;;;;;9.60;4.03;;;;;;;;;;4929770;28;20303;-61
2022/02/16 12:11:37;;;;;;;9.57;3.97;;;;;;;;;;4930100;28;20429;-62
2022/02/16 12:14:08;;;;;;;8.20;3.70;;;;;;;;;;4985438;28;20406;-62
2022/02/16 12:16:35;;;;;;;8.85;4.68;;;;;;;;;;5009278;28;20119;-62
2022/02/16 12:19:04;;;;;;;6.45;3.50;;;;;;;;;;5010907;28;20458;-62
2022/02/16 12:21:31;;;;;;;11.93;4.20;;;;;;;;;;5011686;28;20356;-63
2022/02/16 12:23:59;;;;;;;6.70;4.35;;;;;;;;;;5011024;28;20351;-62
2022/02/16 12:26:34;;;;;;;8.05;3.85;;;;;;;;;;5010258;28;20186;-61
2022/02/16 12:29:10;;;;;;;10.57;3.88;;;;;;;;;;5010511;28;20435;-62
2022/02/16 12:31:38;;;;;;;9.27;3.83;;;;;;;;;;5011341;28;20497;-61
2022/02/16 12:34:15;;;;;;;9.13;3.70;;;;;;;;;;5010845;28;20344;-61
2022/02/16 12:36:46;;;;;;;7.07;3.55;;;;;;;;;;5011321;28;20366;-62
2022/02/16 12:39:11;;;;;;;6.53;3.75;;;;;;;;;;5010415;28;20440;-62
2022/02/16 12:41:38;;;;;;;6.65;3.20;;;;;;;;;;5010320;28;20407;-61
2022/02/16 12:44:11;;;;;;;8.13;4.25;;;;;;;;;;5010405;28;20404;-62
2022/02/16 12:46:43;;;;;;;6.20;3.40;;;;;;;;;;5010417;28;20482;-62
2022/02/16 12:49:17;;;;;;;7.10;3.22;;;;;;;;;;5010990;28;20378;-62
2022/02/16 12:51:45;;;;;;;7.13;3.95;;;;;;;;;;5010043;28;20301;-62
2022/02/16 12:54:13;;;;;;;7.00;3.53;;;;;;;;;;5011267;28;20435;-62
2022/02/16 12:56:41;;;;;;;5.82;3.22;;;;;;;;;;5009875;28;20102;-62
2022/02/16 12:59:11;;;;;;;9.93;3.88;;;;;;;;;;5010045;28;20420;-62
2022/02/16 13:01:41;;;;;;;8.43;3.67;;;;;;;;;;5009931;28;20518;-62
2022/02/16 13:04:07;;;;;;;11.73;3.88;;;;;;;;;;5009469;28;20470;-62
2022/02/16 13:06:43;;;;;;;10.30;4.03;;;;;;;;;;5009946;28;20410;-62
2022/02/16 13:09:09;;;;;;;8.90;4.60;;;;;;;;;;5009396;28;20486;-62
2022/02/16 13:11:42;;;;;;;6.55;3.35;;;;;;;;;;5009976;28;20498;-62
2022/02/16 13:14:09;;;;;;;8.80;3.97;;;;;;;;;;5010658;28;20390;-62
2022/02/16 13:16:35;;;;;;;11.35;4.13;;;;;;;;;;5011085;28;20343;-62
2022/02/16 13:19:02;;;;;;;6.60;3.75;;;;;;;;;;5011175;28;20402;-62
2022/02/16 13:21:27;;;;;;;8.02;3.05;;;;;;;;;;5010174;28;20115;-61
2022/02/16 13:24:06;;;;;;;9.05;3.75;;;;;;;;;;5010329;28;20024;-61
2022/02/16 13:26:40;;;;;;;10.20;4.15;;;;;;;;;;5009999;28;20398;-62
2022/02/16 13:29:06;;;;;;;7.32;3.58;;;;;;;;;;5009191;28;20435;-62
2022/02/16 13:31:36;;;;;;;8.88;3.95;;;;;;;;;;5009418;28;20439;-62
2022/02/16 13:34:09;;;;;;;8.63;3.55;;;;;;;;;;5011087;28;20405;-62
2022/02/16 13:36:37;;;;;;;6.72;3.90;;;;;;;;;;5009497;28;20420;-62
2022/02/16 13:39:15;;;;;;;12.10;4.28;;;;;;;;;;5010817;28;20339;-62
2022/02/16 13:42:01;;;;;;;8.60;3.50;;;;;;;;;;5009590;28;20340;-62
2022/02/16 13:44:35;;;;;;;8.40;3.60;;;;;;;;;;5009027;28;20323;-61
2022/02/16 13:47:06;;;;;;;7.03;3.35;;;;;;;;;;5008723;28;20025;-62
2022/02/16 13:49:33;;;;;;;6.07;3.78;;;;;;;;;;5010100;28;20542;-62
2022/02/16 13:52:01;;;;;;;9.57;3.60;;;;;;;;;;5009310;28;20450;-62
2022/02/16 13:54:29;;;;;;;10.05;4.03;;;;;;;;;;5009604;28;20367;-62
2022/02/16 13:57:20;;;;;;;7.38;3.10;;;;;;;;;;5009236;28;20427;-62
2022/02/16 14:00:01;;;;;;;8.75;3.58;;;;;;;;;;5008986;28;20036;-62
2022/02/16 14:02:32;;;;;;;5.75;2.97;;;;;;;;;;5010898;28;20079;-62
2022/02/16 14:04:59;;;;;;;9.75;3.75;;;;;;;;;;5008568;28;20044;-62
2022/02/16 14:07:26;;;;;;;7.28;3.42;;;;;;;;;;5008812;28;20434;-62
2022/02/16 14:09:52;;;;;;;8.95;3.13;;;;;;;;;;5010245;28;20323;-63
2022/02/16 14:12:18;;;;;;;5.80;3.67;;;;;;;;;;5009372;28;20461;-62
2022/02/16 14:14:43;;;;;;;10.80;4.28;;;;;;;;;;5009022;28;20436;-65
2022/02/16 14:17:09;;;;;;;7.63;3.85;;;;;;;;;;5008763;28;20463;-62
2022/02/16 14:19:35;;;;;;;10.40;3.75;;;;;;;;;;5010416;28;20424;-61
2022/02/16 14:22:04;;;;;;;8.88;4.18;;;;;;;;;;5011528;28;20416;-62